sensor_id;sensor_type;location;lat;lon;timestamp;temperature;humidity
57552;DHT22;43379;48.160;14.036;2023-04-21T00:00:22;11.20;99.90
57552;DHT22;43379;48.160;14.036;2023-04-21T00:02:48;11.20;99.90
57552;DHT22;43379;48.160;14.036;2023-04-21T00:05:14;11.20;99.90
57552;DHT22;43379;48.160;14.036;2023-04-21T00:07:40;11.20;99.90
57552;DHT22;43379;48.160;14.036;2023-04-21T00:10:10;11.20;99.90
57552;DHT22;43379;48.160;14.036;2023-04-21T00:12:36;11.30;99.90
57552;DHT22;43379;48.160;14.036;2023-04-21T00:15:03;11.30;99.90
57552;DHT22;43379;48.160;14.036;2023-04-21T00:17:29;11.30;99.90
57552;DHT22;43379;48.160;14.036;2023-04-21T00:19:55;11.30;99.90
57552;DHT22;43379;48.160;14.036;2023-04-21T00:22:21;11.20;99.90
57552;DHT22;43379;48.160;14.036;2023-04-21T00:24:47;11.20;99.90
57552;DHT22;43379;48.160;14.036;2023-04-21T00:27:13;11.20;99.90
57552;DHT22;43379;48.160;14.036;2023-04-21T00:29:40;11.10;99.90
57552;DHT22;43379;48.160;14.036;2023-04-21T00:32:06;11.10;99.90
57552;DHT22;43379;48.160;14.036;2023-04-21T00:34:36;11.20;99.90
57552;DHT22;43379;48.160;14.036;2023-04-21T00:37:02;11.20;99.90
57552;DHT22;43379;48.160;14.036;2023-04-21T00:39:27;11.20;99.90
57552;DHT22;43379;48.160;14.036;2023-04-21T00:41:53;11.20;99.90
57552;DHT22;43379;48.160;14.036;2023-04-21T00:44:19;11.30;99.90
57552;DHT22;43379;48.160;14.036;2023-04-21T00:46:45;11.30;99.90
57552;DHT22;43379;48.160;14.036;2023-04-21T00:49:12;11.30;99.90
57552;DHT22;43379;48.160;14.036;2023-04-21T00:51:38;11.20;99.90
57552;DHT22;43379;48.160;14.036;2023-04-21T00:54:05;11.20;99.90
57552;DHT22;43379;48.160;14.036;2023-04-21T00:56:33;11.20;99.90
57552;DHT22;43379;48.160;14.036;2023-04-21T00:59:00;11.20;99.90
57552;DHT22;43379;48.160;14.036;2023-04-21T01:01:27;11.20;99.90
57552;DHT22;43379;48.160;14.036;2023-04-21T01:03:57;11.20;99.90
57552;DHT22;43379;48.160;14.036;2023-04-21T01:06:23;11.20;99.90
57552;DHT22;43379;48.160;14.036;2023-04-21T01:08:51;11.20;99.90
57552;DHT22;43379;48.160;14.036;2023-04-21T01:11:17;11.20;99.90
57552;DHT22;43379;48.160;14.036;2023-04-21T01:13:43;11.10;99.90
57552;DHT22;43379;48.160;14.036;2023-04-21T01:16:15;11.10;99.90
57552;DHT22;43379;48.160;14.036;2023-04-21T01:18:41;11.00;99.90
57552;DHT22;43379;48.160;14.036;2023-04-21T01:21:07;11.10;99.90
57552;DHT22;43379;48.160;14.036;2023-04-21T01:23:32;11.00;99.90
57552;DHT22;43379;48.160;14.036;2023-04-21T01:25:58;11.00;99.90
57552;DHT22;43379;48.160;14.036;2023-04-21T01:28:25;11.00;99.90
57552;DHT22;43379;48.160;14.036;2023-04-21T01:30:51;10.90;99.90
57552;DHT22;43379;48.160;14.036;2023-04-21T01:33:17;10.80;99.90
57552;DHT22;43379;48.160;14.036;2023-04-21T01:35:43;10.90;99.90
57552;DHT22;43379;48.160;14.036;2023-04-21T01:38:09;10.90;99.90
57552;DHT22;43379;48.160;14.036;2023-04-21T01:40:35;10.90;99.90
57552;DHT22;43379;48.160;14.036;2023-04-21T01:43:01;10.90;99.90
57552;DHT22;43379;48.160;14.036;2023-04-21T01:45:29;10.90;99.90
57552;DHT22;43379;48.160;14.036;2023-04-21T01:47:55;10.90;99.90
57552;DHT22;43379;48.160;14.036;2023-04-21T01:50:21;10.90;99.90
57552;DHT22;43379;48.160;14.036;2023-04-21T01:52:46;10.90;99.90
57552;DHT22;43379;48.160;14.036;2023-04-21T01:55:12;10.80;99.90
57552;DHT22;43379;48.160;14.036;2023-04-21T01:57:39;10.70;99.90
57552;DHT22;43379;48.160;14.036;2023-04-21T02:00:05;10.70;99.90
57552;DHT22;43379;48.160;14.036;2023-04-21T02:02:31;10.70;99.90
57552;DHT22;43379;48.160;14.036;2023-04-21T02:04:57;10.60;99.90
57552;DHT22;43379;48.160;14.036;2023-04-21T02:07:22;10.60;99.90
57552;DHT22;43379;48.160;14.036;2023-04-21T02:09:48;10.60;99.90
57552;DHT22;43379;48.160;14.036;2023-04-21T02:12:14;10.50;99.90
57552;DHT22;43379;48.160;14.036;2023-04-21T02:14:39;10.40;99.90
57552;DHT22;43379;48.160;14.036;2023-04-21T02:17:05;10.50;99.90
57552;DHT22;43379;48.160;14.036;2023-04-21T02:19:31;10.40;99.90
57552;DHT22;43379;48.160;14.036;2023-04-21T02:21:57;10.30;99.90
57552;DHT22;43379;48.160;14.036;2023-04-21T02:24:22;10.30;99.90
57552;DHT22;43379;48.160;14.036;2023-04-21T02:26:48;10.30;99.90
57552;DHT22;43379;48.160;14.036;2023-04-21T02:29:14;10.20;99.90
57552;DHT22;43379;48.160;14.036;2023-04-21T02:31:40;10.20;99.90
57552;DHT22;43379;48.160;14.036;2023-04-21T02:34:06;10.20;99.90
57552;DHT22;43379;48.160;14.036;2023-04-21T02:36:32;10.20;99.90
57552;DHT22;43379;48.160;14.036;2023-04-21T02:38:57;10.20;99.90
57552;DHT22;43379;48.160;14.036;2023-04-21T02:41:23;10.10;99.90
57552;DHT22;43379;48.160;14.036;2023-04-21T02:43:49;10.00;99.90
57552;DHT22;43379;48.160;14.036;2023-04-21T02:46:15;10.00;99.90
57552;DHT22;43379;48.160;14.036;2023-04-21T02:48:40;10.00;99.90
57552;DHT22;43379;48.160;14.036;2023-04-21T02:51:15;9.90;99.90
57552;DHT22;43379;48.160;14.036;2023-04-21T02:53:40;9.70;99.90
57552;DHT22;43379;48.160;14.036;2023-04-21T02:56:07;9.80;99.90
57552;DHT22;43379;48.160;14.036;2023-04-21T02:58:36;9.70;99.90
57552;DHT22;43379;48.160;14.036;2023-04-21T03:01:03;9.70;99.90
57552;DHT22;43379;48.160;14.036;2023-04-21T03:03:30;9.60;99.90
57552;DHT22;43379;48.160;14.036;2023-04-21T03:06:00;9.60;99.90
57552;DHT22;43379;48.160;14.036;2023-04-21T03:08:26;9.50;99.90
57552;DHT22;43379;48.160;14.036;2023-04-21T03:10:52;9.50;99.90
57552;DHT22;43379;48.160;14.036;2023-04-21T03:13:18;9.40;99.90
57552;DHT22;43379;48.160;14.036;2023-04-21T03:15:43;9.40;99.90
57552;DHT22;43379;48.160;14.036;2023-04-21T03:18:09;9.50;99.90
57552;DHT22;43379;48.160;14.036;2023-04-21T03:20:35;9.40;99.90
57552;DHT22;43379;48.160;14.036;2023-04-21T03:23:01;9.50;99.90
57552;DHT22;43379;48.160;14.036;2023-04-21T03:25:26;9.40;99.90
57552;DHT22;43379;48.160;14.036;2023-04-21T03:27:55;9.40;99.90
57552;DHT22;43379;48.160;14.036;2023-04-21T03:30:21;9.30;99.90
57552;DHT22;43379;48.160;14.036;2023-04-21T03:32:47;9.30;99.90
57552;DHT22;43379;48.160;14.036;2023-04-21T03:35:13;9.30;99.90
57552;DHT22;43379;48.160;14.036;2023-04-21T03:37:39;9.20;99.90
57552;DHT22;43379;48.160;14.036;2023-04-21T03:40:05;9.20;99.90
57552;DHT22;43379;48.160;14.036;2023-04-21T03:42:31;9.30;99.90
57552;DHT22;43379;48.160;14.036;2023-04-21T03:45:01;9.30;99.90
57552;DHT22;43379;48.160;14.036;2023-04-21T03:47:27;9.30;99.90
57552;DHT22;43379;48.160;14.036;2023-04-21T03:49:52;9.30;99.90
57552;DHT22;43379;48.160;14.036;2023-04-21T03:52:18;9.20;99.90
57552;DHT22;43379;48.160;14.036;2023-04-21T03:54:43;9.10;99.90
57552;DHT22;43379;48.160;14.036;2023-04-21T03:57:09;9.10;99.90
57552;DHT22;43379;48.160;14.036;2023-04-21T03:59:35;9.10;99.90
57552;DHT22;43379;48.160;14.036;2023-04-21T04:02:00;9.00;99.90
57552;DHT22;43379;48.160;14.036;2023-04-21T04:04:26;9.00;99.90
57552;DHT22;43379;48.160;14.036;2023-04-21T04:06:51;9.10;99.90
57552;DHT22;43379;48.160;14.036;2023-04-21T04:09:17;9.00;99.90
57552;DHT22;43379;48.160;14.036;2023-04-21T04:11:43;8.90;99.90
57552;DHT22;43379;48.160;14.036;2023-04-21T04:14:08;8.90;99.90
57552;DHT22;43379;48.160;14.036;2023-04-21T04:16:34;8.90;99.90
57552;DHT22;43379;48.160;14.036;2023-04-21T04:19:00;8.90;99.90
57552;DHT22;43379;48.160;14.036;2023-04-21T04:21:26;8.90;99.90
57552;DHT22;43379;48.160;14.036;2023-04-21T04:23:52;8.90;99.90
57552;DHT22;43379;48.160;14.036;2023-04-21T04:26:18;8.90;99.90
57552;DHT22;43379;48.160;14.036;2023-04-21T04:28:44;8.90;99.90
57552;DHT22;43379;48.160;14.036;2023-04-21T04:31:10;8.90;99.90
57552;DHT22;43379;48.160;14.036;2023-04-21T04:33:40;8.90;99.90
57552;DHT22;43379;48.160;14.036;2023-04-21T04:36:07;8.90;99.90
57552;DHT22;43379;48.160;14.036;2023-04-21T04:38:33;8.90;99.90
57552;DHT22;43379;48.160;14.036;2023-04-21T04:41:02;8.90;99.90
57552;DHT22;43379;48.160;14.036;2023-04-21T04:43:27;8.90;99.90
57552;DHT22;43379;48.160;14.036;2023-04-21T04:45:53;8.90;99.90
57552;DHT22;43379;48.160;14.036;2023-04-21T04:48:19;8.90;99.90
57552;DHT22;43379;48.160;14.036;2023-04-21T04:50:45;9.10;99.90
57552;DHT22;43379;48.160;14.036;2023-04-21T04:53:11;9.20;99.90
57552;DHT22;43379;48.160;14.036;2023-04-21T04:55:36;9.30;99.90
57552;DHT22;43379;48.160;14.036;2023-04-21T04:58:02;9.40;99.90
57552;DHT22;43379;48.160;14.036;2023-04-21T05:00:28;9.40;99.90
57552;DHT22;43379;48.160;14.036;2023-04-21T05:02:54;9.50;99.90
57552;DHT22;43379;48.160;14.036;2023-04-21T05:05:20;9.60;99.90
57552;DHT22;43379;48.160;14.036;2023-04-21T05:07:46;9.70;99.90
57552;DHT22;43379;48.160;14.036;2023-04-21T05:10:12;9.70;99.90
57552;DHT22;43379;48.160;14.036;2023-04-21T05:12:38;9.70;99.90
57552;DHT22;43379;48.160;14.036;2023-04-21T05:15:05;9.80;99.90
57552;DHT22;43379;48.160;14.036;2023-04-21T05:17:32;9.90;99.90
57552;DHT22;43379;48.160;14.036;2023-04-21T05:19:57;10.20;99.90
57552;DHT22;43379;48.160;14.036;2023-04-21T05:22:23;10.20;99.90
57552;DHT22;43379;48.160;14.036;2023-04-21T05:24:49;10.50;99.90
57552;DHT22;43379;48.160;14.036;2023-04-21T05:27:15;10.80;99.90
57552;DHT22;43379;48.160;14.036;2023-04-21T05:29:40;11.40;99.90
57552;DHT22;43379;48.160;14.036;2023-04-21T05:32:06;11.80;99.90
57552;DHT22;43379;48.160;14.036;2023-04-21T05:34:32;12.00;99.90
57552;DHT22;43379;48.160;14.036;2023-04-21T05:36:57;12.40;99.90
57552;DHT22;43379;48.160;14.036;2023-04-21T05:39:23;12.60;99.90
57552;DHT22;43379;48.160;14.036;2023-04-21T05:41:49;12.80;99.90
57552;DHT22;43379;48.160;14.036;2023-04-21T05:44:17;13.40;99.90
57552;DHT22;43379;48.160;14.036;2023-04-21T05:46:43;14.00;99.90
57552;DHT22;43379;48.160;14.036;2023-04-21T05:49:08;14.40;99.90
57552;DHT22;43379;48.160;14.036;2023-04-21T05:51:34;14.80;99.90
57552;DHT22;43379;48.160;14.036;2023-04-21T05:54:00;15.20;99.90
57552;DHT22;43379;48.160;14.036;2023-04-21T05:56:26;15.70;99.90
57552;DHT22;43379;48.160;14.036;2023-04-21T05:58:51;16.20;99.90
57552;DHT22;43379;48.160;14.036;2023-04-21T06:01:17;16.70;99.90
57552;DHT22;43379;48.160;14.036;2023-04-21T06:03:43;17.30;99.90
57552;DHT22;43379;48.160;14.036;2023-04-21T06:06:08;18.00;99.90
57552;DHT22;43379;48.160;14.036;2023-04-21T06:08:36;18.20;99.90
57552;DHT22;43379;48.160;14.036;2023-04-21T06:11:01;18.20;99.90
57552;DHT22;43379;48.160;14.036;2023-04-21T06:13:27;18.30;98.80
57552;DHT22;43379;48.160;14.036;2023-04-21T06:15:53;19.00;99.60
57552;DHT22;43379;48.160;14.036;2023-04-21T06:18:19;19.70;99.60
57552;DHT22;43379;48.160;14.036;2023-04-21T06:20:55;20.40;97.30
57552;DHT22;43379;48.160;14.036;2023-04-21T06:23:21;21.10;95.40
57552;DHT22;43379;48.160;14.036;2023-04-21T06:26:01;21.80;96.70
57552;DHT22;43379;48.160;14.036;2023-04-21T06:28:32;22.90;94.10
57552;DHT22;43379;48.160;14.036;2023-04-21T06:30:59;23.10;90.50
57552;DHT22;43379;48.160;14.036;2023-04-21T06:33:25;22.80;90.10
57552;DHT22;43379;48.160;14.036;2023-04-21T06:35:52;22.50;88.70
57552;DHT22;43379;48.160;14.036;2023-04-21T06:38:18;22.40;90.00
57552;DHT22;43379;48.160;14.036;2023-04-21T06:40:43;22.80;89.10
57552;DHT22;43379;48.160;14.036;2023-04-21T06:43:09;23.10;90.20
57552;DHT22;43379;48.160;14.036;2023-04-21T06:45:35;23.30;88.20
57552;DHT22;43379;48.160;14.036;2023-04-21T06:48:00;23.60;87.40
57552;DHT22;43379;48.160;14.036;2023-04-21T06:50:26;23.90;87.80
57552;DHT22;43379;48.160;14.036;2023-04-21T06:52:52;24.20;84.80
57552;DHT22;43379;48.160;14.036;2023-04-21T06:55:17;24.60;83.40
57552;DHT22;43379;48.160;14.036;2023-04-21T06:57:43;24.60;82.20
57552;DHT22;43379;48.160;14.036;2023-04-21T07:00:09;24.90;82.10
57552;DHT22;43379;48.160;14.036;2023-04-21T07:02:36;25.00;78.90
57552;DHT22;43379;48.160;14.036;2023-04-21T07:05:01;24.80;78.80
57552;DHT22;43379;48.160;14.036;2023-04-21T07:07:27;24.70;80.30
57552;DHT22;43379;48.160;14.036;2023-04-21T07:09:52;24.20;80.10
57552;DHT22;43379;48.160;14.036;2023-04-21T07:12:18;23.80;82.30
57552;DHT22;43379;48.160;14.036;2023-04-21T07:14:44;23.70;82.30
57552;DHT22;43379;48.160;14.036;2023-04-21T07:17:09;23.10;81.20
57552;DHT22;43379;48.160;14.036;2023-04-21T07:19:35;22.80;80.60
57552;DHT22;43379;48.160;14.036;2023-04-21T07:22:01;22.50;83.10
57552;DHT22;43379;48.160;14.036;2023-04-21T07:24:27;22.20;82.40
57552;DHT22;43379;48.160;14.036;2023-04-21T07:26:52;22.10;83.00
57552;DHT22;43379;48.160;14.036;2023-04-21T07:29:18;21.90;85.20
57552;DHT22;43379;48.160;14.036;2023-04-21T07:31:44;21.60;83.50
57552;DHT22;43379;48.160;14.036;2023-04-21T07:34:11;21.50;83.90
57552;DHT22;43379;48.160;14.036;2023-04-21T07:36:37;21.20;86.90
57552;DHT22;43379;48.160;14.036;2023-04-21T07:39:02;21.30;86.40
57552;DHT22;43379;48.160;14.036;2023-04-21T07:41:29;21.40;87.90
57552;DHT22;43379;48.160;14.036;2023-04-21T07:43:55;21.50;86.30
57552;DHT22;43379;48.160;14.036;2023-04-21T07:46:21;21.60;86.90
57552;DHT22;43379;48.160;14.036;2023-04-21T07:48:48;21.60;85.70
57552;DHT22;43379;48.160;14.036;2023-04-21T07:51:14;21.40;85.10
57552;DHT22;43379;48.160;14.036;2023-04-21T07:53:42;21.50;85.10
57552;DHT22;43379;48.160;14.036;2023-04-21T07:56:08;21.40;84.90
57552;DHT22;43379;48.160;14.036;2023-04-21T07:58:34;21.30;84.30
57552;DHT22;43379;48.160;14.036;2023-04-21T08:00:59;21.40;87.20
57552;DHT22;43379;48.160;14.036;2023-04-21T08:03:25;21.50;87.20
57552;DHT22;43379;48.160;14.036;2023-04-21T08:05:50;21.70;86.10
57552;DHT22;43379;48.160;14.036;2023-04-21T08:08:16;21.90;87.60
57552;DHT22;43379;48.160;14.036;2023-04-21T08:10:45;21.80;84.70
57552;DHT22;43379;48.160;14.036;2023-04-21T08:13:11;21.80;84.80
57552;DHT22;43379;48.160;14.036;2023-04-21T08:15:37;21.70;86.20
57552;DHT22;43379;48.160;14.036;2023-04-21T08:18:02;21.50;83.60
57552;DHT22;43379;48.160;14.036;2023-04-21T08:20:28;21.50;85.30
57552;DHT22;43379;48.160;14.036;2023-04-21T08:22:54;21.50;85.20
57552;DHT22;43379;48.160;14.036;2023-04-21T08:25:20;21.60;84.50
57552;DHT22;43379;48.160;14.036;2023-04-21T08:27:46;21.70;85.10
57552;DHT22;43379;48.160;14.036;2023-04-21T08:30:12;21.50;85.30
57552;DHT22;43379;48.160;14.036;2023-04-21T08:32:37;21.60;83.00
57552;DHT22;43379;48.160;14.036;2023-04-21T08:35:03;21.50;84.20
57552;DHT22;43379;48.160;14.036;2023-04-21T08:37:29;21.80;84.20
57552;DHT22;43379;48.160;14.036;2023-04-21T08:39:55;21.50;84.40
57552;DHT22;43379;48.160;14.036;2023-04-21T08:42:20;21.70;86.60
57552;DHT22;43379;48.160;14.036;2023-04-21T08:44:46;21.70;83.30
57552;DHT22;43379;48.160;14.036;2023-04-21T08:47:13;21.40;83.50
57552;DHT22;43379;48.160;14.036;2023-04-21T08:49:40;21.10;82.80
57552;DHT22;43379;48.160;14.036;2023-04-21T08:52:07;21.00;83.90
57552;DHT22;43379;48.160;14.036;2023-04-21T08:54:33;20.60;83.30
57552;DHT22;43379;48.160;14.036;2023-04-21T08:57:00;20.40;84.60
57552;DHT22;43379;48.160;14.036;2023-04-21T08:59:28;20.10;84.60
57552;DHT22;43379;48.160;14.036;2023-04-21T09:02:13;20.00;86.00
57552;DHT22;43379;48.160;14.036;2023-04-21T09:04:42;20.00;85.40
57552;DHT22;43379;48.160;14.036;2023-04-21T09:07:07;20.10;87.00
57552;DHT22;43379;48.160;14.036;2023-04-21T09:09:55;20.20;86.70
57552;DHT22;43379;48.160;14.036;2023-04-21T09:12:22;20.20;86.80
57552;DHT22;43379;48.160;14.036;2023-04-21T09:14:48;20.30;86.20
57552;DHT22;43379;48.160;14.036;2023-04-21T09:17:19;20.30;86.30
57552;DHT22;43379;48.160;14.036;2023-04-21T09:19:45;20.40;85.30
57552;DHT22;43379;48.160;14.036;2023-04-21T09:22:17;20.30;86.10
57552;DHT22;43379;48.160;14.036;2023-04-21T09:24:56;20.30;85.70
57552;DHT22;43379;48.160;14.036;2023-04-21T09:27:22;20.00;85.80
57552;DHT22;43379;48.160;14.036;2023-04-21T09:29:48;20.10;87.40
57552;DHT22;43379;48.160;14.036;2023-04-21T09:32:17;20.10;87.60
57552;DHT22;43379;48.160;14.036;2023-04-21T09:34:44;20.20;89.10
57552;DHT22;43379;48.160;14.036;2023-04-21T09:37:11;20.20;87.10
57552;DHT22;43379;48.160;14.036;2023-04-21T09:39:37;20.10;88.10
57552;DHT22;43379;48.160;14.036;2023-04-21T09:42:03;20.10;87.90
57552;DHT22;43379;48.160;14.036;2023-04-21T09:44:29;20.30;87.60
57552;DHT22;43379;48.160;14.036;2023-04-21T09:46:59;20.30;87.30
57552;DHT22;43379;48.160;14.036;2023-04-21T09:49:34;20.40;87.90
57552;DHT22;43379;48.160;14.036;2023-04-21T09:52:01;20.50;89.40
57552;DHT22;43379;48.160;14.036;2023-04-21T09:54:32;20.70;88.80
57552;DHT22;43379;48.160;14.036;2023-04-21T09:57:00;20.90;86.90
57552;DHT22;43379;48.160;14.036;2023-04-21T09:59:34;21.00;87.50
57552;DHT22;43379;48.160;14.036;2023-04-21T10:02:04;21.10;87.30
57552;DHT22;43379;48.160;14.036;2023-04-21T10:04:30;21.20;85.20
57552;DHT22;43379;48.160;14.036;2023-04-21T10:07:02;21.10;85.70
57552;DHT22;43379;48.160;14.036;2023-04-21T10:09:35;21.30;86.50
57552;DHT22;43379;48.160;14.036;2023-04-21T10:12:04;21.40;85.20
57552;DHT22;43379;48.160;14.036;2023-04-21T10:14:30;21.50;86.30
57552;DHT22;43379;48.160;14.036;2023-04-21T10:17:03;21.60;86.70
57552;DHT22;43379;48.160;14.036;2023-04-21T10:19:29;21.70;85.10
57552;DHT22;43379;48.160;14.036;2023-04-21T10:21:59;21.50;84.60
57552;DHT22;43379;48.160;14.036;2023-04-21T10:24:29;21.40;85.10
57552;DHT22;43379;48.160;14.036;2023-04-21T10:26:56;21.40;84.00
57552;DHT22;43379;48.160;14.036;2023-04-21T10:29:31;21.60;85.50
57552;DHT22;43379;48.160;14.036;2023-04-21T10:31:57;21.50;84.60
57552;DHT22;43379;48.160;14.036;2023-04-21T10:34:34;21.70;84.80
57552;DHT22;43379;48.160;14.036;2023-04-21T10:39:32;22.00;86.70
57552;DHT22;43379;48.160;14.036;2023-04-21T10:49:49;22.40;85.10
57552;DHT22;43379;48.160;14.036;2023-04-21T10:52:15;22.40;84.00
57552;DHT22;43379;48.160;14.036;2023-04-21T10:57:19;22.30;82.20
57552;DHT22;43379;48.160;14.036;2023-04-21T10:59:46;22.10;81.20
57552;DHT22;43379;48.160;14.036;2023-04-21T11:02:16;22.00;83.30
57552;DHT22;43379;48.160;14.036;2023-04-21T11:04:42;22.00;81.70
57552;DHT22;43379;48.160;14.036;2023-04-21T11:07:15;22.00;83.50
57552;DHT22;43379;48.160;14.036;2023-04-21T11:09:42;22.00;83.10
57552;DHT22;43379;48.160;14.036;2023-04-21T11:12:10;21.90;82.80
57552;DHT22;43379;48.160;14.036;2023-04-21T11:14:38;21.90;83.20
57552;DHT22;43379;48.160;14.036;2023-04-21T11:17:07;21.80;80.80
57552;DHT22;43379;48.160;14.036;2023-04-21T11:19:35;21.80;81.20
57552;DHT22;43379;48.160;14.036;2023-04-21T11:22:03;21.80;81.70
57552;DHT22;43379;48.160;14.036;2023-04-21T11:24:29;21.90;81.70
57552;DHT22;43379;48.160;14.036;2023-04-21T11:26:55;21.70;78.90
57552;DHT22;43379;48.160;14.036;2023-04-21T11:29:21;21.70;81.20
57552;DHT22;43379;48.160;14.036;2023-04-21T11:31:47;21.60;80.30
57552;DHT22;43379;48.160;14.036;2023-04-21T11:34:15;21.60;81.90
57552;DHT22;43379;48.160;14.036;2023-04-21T11:36:45;21.50;80.50
57552;DHT22;43379;48.160;14.036;2023-04-21T11:39:13;21.60;82.90
57552;DHT22;43379;48.160;14.036;2023-04-21T11:41:47;21.70;82.90
57552;DHT22;43379;48.160;14.036;2023-04-21T11:44:29;21.70;82.10
57552;DHT22;43379;48.160;14.036;2023-04-21T11:46:54;21.50;76.90
57552;DHT22;43379;48.160;14.036;2023-04-21T11:49:24;21.40;78.00
57552;DHT22;43379;48.160;14.036;2023-04-21T11:51:50;21.30;76.80
57552;DHT22;43379;48.160;14.036;2023-04-21T11:54:18;21.20;78.00
57552;DHT22;43379;48.160;14.036;2023-04-21T11:56:46;21.10;78.40
57552;DHT22;43379;48.160;14.036;2023-04-21T11:59:15;20.80;77.10
57552;DHT22;43379;48.160;14.036;2023-04-21T12:01:45;20.80;79.30
57552;DHT22;43379;48.160;14.036;2023-04-21T12:04:37;20.70;78.50
57552;DHT22;43379;48.160;14.036;2023-04-21T12:07:02;20.80;80.20
57552;DHT22;43379;48.160;14.036;2023-04-21T12:09:28;20.80;77.90
57552;DHT22;43379;48.160;14.036;2023-04-21T12:11:56;20.70;76.80
57552;DHT22;43379;48.160;14.036;2023-04-21T12:14:23;20.70;78.00
57552;DHT22;43379;48.160;14.036;2023-04-21T12:16:54;20.70;77.80
57552;DHT22;43379;48.160;14.036;2023-04-21T12:19:37;20.80;78.70
57552;DHT22;43379;48.160;14.036;2023-04-21T12:22:08;20.70;77.10
57552;DHT22;43379;48.160;14.036;2023-04-21T12:24:34;20.70;78.80
57552;DHT22;43379;48.160;14.036;2023-04-21T12:27:00;20.70;78.80
57552;DHT22;43379;48.160;14.036;2023-04-21T12:29:27;20.70;79.10
57552;DHT22;43379;48.160;14.036;2023-04-21T12:31:53;20.70;79.10
57552;DHT22;43379;48.160;14.036;2023-04-21T12:34:18;20.70;77.90
57552;DHT22;43379;48.160;14.036;2023-04-21T12:36:44;20.70;79.10
57552;DHT22;43379;48.160;14.036;2023-04-21T12:39:09;20.60;77.60
57552;DHT22;43379;48.160;14.036;2023-04-21T12:41:35;20.70;78.60
57552;DHT22;43379;48.160;14.036;2023-04-21T12:44:01;20.80;79.20
57552;DHT22;43379;48.160;14.036;2023-04-21T12:46:27;20.90;77.20
57552;DHT22;43379;48.160;14.036;2023-04-21T12:48:52;20.90;77.40
57552;DHT22;43379;48.160;14.036;2023-04-21T12:51:18;20.90;78.70
57552;DHT22;43379;48.160;14.036;2023-04-21T12:53:44;21.00;76.60
57552;DHT22;43379;48.160;14.036;2023-04-21T12:56:10;20.90;77.00
57552;DHT22;43379;48.160;14.036;2023-04-21T12:58:36;21.00;77.90
57552;DHT22;43379;48.160;14.036;2023-04-21T13:01:02;20.90;77.10
57552;DHT22;43379;48.160;14.036;2023-04-21T13:03:27;20.90;76.20
57552;DHT22;43379;48.160;14.036;2023-04-21T13:05:53;20.80;75.40
57552;DHT22;43379;48.160;14.036;2023-04-21T13:08:20;20.70;75.50
57552;DHT22;43379;48.160;14.036;2023-04-21T13:10:46;20.70;76.80
57552;DHT22;43379;48.160;14.036;2023-04-21T13:13:11;20.70;76.80
57552;DHT22;43379;48.160;14.036;2023-04-21T13:15:37;20.70;76.10
57552;DHT22;43379;48.160;14.036;2023-04-21T13:18:03;20.70;76.20
57552;DHT22;43379;48.160;14.036;2023-04-21T13:20:30;20.70;75.30
57552;DHT22;43379;48.160;14.036;2023-04-21T13:22:56;20.70;74.90
57552;DHT22;43379;48.160;14.036;2023-04-21T13:25:21;20.60;74.20
57552;DHT22;43379;48.160;14.036;2023-04-21T13:27:47;20.60;75.40
57552;DHT22;43379;48.160;14.036;2023-04-21T13:30:13;20.60;74.40
57552;DHT22;43379;48.160;14.036;2023-04-21T13:32:40;20.70;75.80
57552;DHT22;43379;48.160;14.036;2023-04-21T13:35:06;20.70;74.30
57552;DHT22;43379;48.160;14.036;2023-04-21T13:37:39;20.70;75.00
57552;DHT22;43379;48.160;14.036;2023-04-21T13:40:06;20.60;74.10
57552;DHT22;43379;48.160;14.036;2023-04-21T13:42:33;20.60;73.50
57552;DHT22;43379;48.160;14.036;2023-04-21T13:44:59;20.60;73.80
57552;DHT22;43379;48.160;14.036;2023-04-21T13:47:29;20.60;73.50
57552;DHT22;43379;48.160;14.036;2023-04-21T13:49:55;20.60;74.10
57552;DHT22;43379;48.160;14.036;2023-04-21T13:52:20;20.50;72.20
57552;DHT22;43379;48.160;14.036;2023-04-21T13:54:46;20.50;72.50
57552;DHT22;43379;48.160;14.036;2023-04-21T13:57:12;20.50;73.10
57552;DHT22;43379;48.160;14.036;2023-04-21T13:59:37;20.50;72.10
57552;DHT22;43379;48.160;14.036;2023-04-21T14:02:03;20.50;71.20
57552;DHT22;43379;48.160;14.036;2023-04-21T14:04:29;20.50;73.00
57552;DHT22;43379;48.160;14.036;2023-04-21T14:06:54;20.50;73.00
57552;DHT22;43379;48.160;14.036;2023-04-21T14:09:20;20.50;73.10
57552;DHT22;43379;48.160;14.036;2023-04-21T14:11:46;20.50;74.40
57552;DHT22;43379;48.160;14.036;2023-04-21T14:14:12;20.50;74.10
57552;DHT22;43379;48.160;14.036;2023-04-21T14:16:37;20.50;73.50
57552;DHT22;43379;48.160;14.036;2023-04-21T14:19:03;20.60;73.90
57552;DHT22;43379;48.160;14.036;2023-04-21T14:21:29;20.60;72.60
57552;DHT22;43379;48.160;14.036;2023-04-21T14:23:56;20.50;71.10
57552;DHT22;43379;48.160;14.036;2023-04-21T14:26:21;20.50;72.00
57552;DHT22;43379;48.160;14.036;2023-04-21T14:28:48;20.40;72.30
57552;DHT22;43379;48.160;14.036;2023-04-21T14:31:14;20.50;71.80
57552;DHT22;43379;48.160;14.036;2023-04-21T14:33:40;20.50;72.80
57552;DHT22;43379;48.160;14.036;2023-04-21T14:36:06;20.40;71.10
57552;DHT22;43379;48.160;14.036;2023-04-21T14:38:34;20.30;72.20
57552;DHT22;43379;48.160;14.036;2023-04-21T14:41:00;20.30;72.50
57552;DHT22;43379;48.160;14.036;2023-04-21T14:43:26;20.20;71.50
57552;DHT22;43379;48.160;14.036;2023-04-21T14:45:52;20.20;71.40
57552;DHT22;43379;48.160;14.036;2023-04-21T14:48:17;20.30;71.00
57552;DHT22;43379;48.160;14.036;2023-04-21T14:50:43;20.20;69.90
57552;DHT22;43379;48.160;14.036;2023-04-21T14:53:09;20.20;70.40
57552;DHT22;43379;48.160;14.036;2023-04-21T14:55:35;20.10;71.10
57552;DHT22;43379;48.160;14.036;2023-04-21T14:58:00;20.10;71.70
57552;DHT22;43379;48.160;14.036;2023-04-21T15:00:26;20.20;73.00
57552;DHT22;43379;48.160;14.036;2023-04-21T15:02:53;20.20;72.60
57552;DHT22;43379;48.160;14.036;2023-04-21T15:05:19;20.10;73.00
57552;DHT22;43379;48.160;14.036;2023-04-21T15:07:45;20.20;73.00
57552;DHT22;43379;48.160;14.036;2023-04-21T15:10:11;20.30;74.10
57552;DHT22;43379;48.160;14.036;2023-04-21T15:12:37;20.30;72.40
57552;DHT22;43379;48.160;14.036;2023-04-21T15:15:06;20.20;71.60
57552;DHT22;43379;48.160;14.036;2023-04-21T15:17:33;20.20;71.70
57552;DHT22;43379;48.160;14.036;2023-04-21T15:19:58;20.10;72.20
57552;DHT22;43379;48.160;14.036;2023-04-21T15:22:24;20.10;71.50
57552;DHT22;43379;48.160;14.036;2023-04-21T15:24:50;20.10;72.40
57552;DHT22;43379;48.160;14.036;2023-04-21T15:27:15;20.10;72.30